sensor_id;sensor_type;location;lat;lon;timestamp;P1;durP1;ratioP1;P2;durP2;ratioP2
64459;SDS011;50828;53.756;21.140;2024-01-30T00:04:39;33.70;;;16.80;;
64459;SDS011;50828;53.756;21.140;2024-01-30T00:09:47;33.60;;;16.60;;
64459;SDS011;50828;53.756;21.140;2024-01-30T00:14:56;38.40;;;17.60;;
64459;SDS011;50828;53.756;21.140;2024-01-30T00:20:05;36.70;;;15.50;;
64459;SDS011;50828;53.756;21.140;2024-01-30T00:25:14;39.60;;;17.50;;
64459;SDS011;50828;53.756;21.140;2024-01-30T00:30:22;36.30;;;16.00;;
64459;SDS011;50828;53.756;21.140;2024-01-30T00:35:30;35.10;;;16.50;;
64459;SDS011;50828;53.756;21.140;2024-01-30T00:40:37;34.10;;;17.80;;
64459;SDS011;50828;53.756;21.140;2024-01-30T00:45:44;38.00;;;16.60;;
64459;SDS011;50828;53.756;21.140;2024-01-30T00:50:52;40.10;;;16.10;;
64459;SDS011;50828;53.756;21.140;2024-01-30T00:56:00;38.80;;;17.90;;
64459;SDS011;50828;53.756;21.140;2024-01-30T01:01:07;30.00;;;14.80;;
64459;SDS011;50828;53.756;21.140;2024-01-30T01:06:15;36.20;;;16.90;;
64459;SDS011;50828;53.756;21.140;2024-01-30T01:11:23;33.90;;;16.50;;
64459;SDS011;50828;53.756;21.140;2024-01-30T01:16:31;34.30;;;16.60;;
64459;SDS011;50828;53.756;21.140;2024-01-30T01:21:39;35.10;;;15.90;;
64459;SDS011;50828;53.756;21.140;2024-01-30T01:26:47;37.70;;;17.20;;
64459;SDS011;50828;53.756;21.140;2024-01-30T01:31:55;38.10;;;17.00;;
64459;SDS011;50828;53.756;21.140;2024-01-30T01:37:02;34.40;;;16.60;;
64459;SDS011;50828;53.756;21.140;2024-01-30T01:42:11;37.00;;;17.70;;
64459;SDS011;50828;53.756;21.140;2024-01-30T01:47:18;41.10;;;17.80;;
64459;SDS011;50828;53.756;21.140;2024-01-30T01:52:26;36.60;;;18.20;;
64459;SDS011;50828;53.756;21.140;2024-01-30T01:57:34;38.30;;;17.20;;
64459;SDS011;50828;53.756;21.140;2024-01-30T02:02:43;34.10;;;17.90;;
64459;SDS011;50828;53.756;21.140;2024-01-30T02:07:51;37.80;;;17.50;;
64459;SDS011;50828;53.756;21.140;2024-01-30T02:13:00;33.30;;;17.20;;
64459;SDS011;50828;53.756;21.140;2024-01-30T02:18:08;39.80;;;17.40;;
64459;SDS011;50828;53.756;21.140;2024-01-30T02:23:16;31.80;;;16.70;;
64459;SDS011;50828;53.756;21.140;2024-01-30T02:28:24;34.80;;;17.10;;
64459;SDS011;50828;53.756;21.140;2024-01-30T02:33:32;34.10;;;16.30;;
64459;SDS011;50828;53.756;21.140;2024-01-30T02:38:40;35.10;;;17.20;;
64459;SDS011;50828;53.756;21.140;2024-01-30T02:43:47;38.00;;;18.20;;
64459;SDS011;50828;53.756;21.140;2024-01-30T02:48:55;35.80;;;17.60;;
64459;SDS011;50828;53.756;21.140;2024-01-30T02:54:02;34.90;;;16.90;;
64459;SDS011;50828;53.756;21.140;2024-01-30T02:59:10;30.80;;;17.40;;
64459;SDS011;50828;53.756;21.140;2024-01-30T03:04:17;35.60;;;17.80;;
64459;SDS011;50828;53.756;21.140;2024-01-30T03:09:25;34.90;;;16.80;;
64459;SDS011;50828;53.756;21.140;2024-01-30T03:14:33;36.40;;;17.10;;
64459;SDS011;50828;53.756;21.140;2024-01-30T03:19:41;41.00;;;18.20;;
64459;SDS011;50828;53.756;21.140;2024-01-30T03:24:49;32.40;;;16.70;;
64459;SDS011;50828;53.756;21.140;2024-01-30T03:29:57;38.50;;;18.70;;
64459;SDS011;50828;53.756;21.140;2024-01-30T03:35:05;33.90;;;17.40;;
64459;SDS011;50828;53.756;21.140;2024-01-30T03:40:14;37.10;;;17.70;;
64459;SDS011;50828;53.756;21.140;2024-01-30T03:45:22;39.10;;;19.10;;
64459;SDS011;50828;53.756;21.140;2024-01-30T03:50:30;42.90;;;19.50;;
64459;SDS011;50828;53.756;21.140;2024-01-30T03:55:37;37.90;;;18.70;;
64459;SDS011;50828;53.756;21.140;2024-01-30T04:06:29;37.10;;;18.10;;
64459;SDS011;50828;53.756;21.140;2024-01-30T04:11:37;38.80;;;19.90;;
64459;SDS011;50828;53.756;21.140;2024-01-30T04:16:46;43.60;;;19.30;;
64459;SDS011;50828;53.756;21.140;2024-01-30T04:21:54;36.30;;;17.80;;
64459;SDS011;50828;53.756;21.140;2024-01-30T04:27:03;42.90;;;19.70;;
64459;SDS011;50828;53.756;21.140;2024-01-30T04:32:11;40.20;;;19.20;;
64459;SDS011;50828;53.756;21.140;2024-01-30T04:37:20;42.60;;;19.50;;
64459;SDS011;50828;53.756;21.140;2024-01-30T04:42:29;36.70;;;18.50;;
64459;SDS011;50828;53.756;21.140;2024-01-30T04:47:37;34.10;;;17.90;;
64459;SDS011;50828;53.756;21.140;2024-01-30T04:52:45;44.30;;;20.10;;
64459;SDS011;50828;53.756;21.140;2024-01-30T04:57:54;39.40;;;19.50;;
64459;SDS011;50828;53.756;21.140;2024-01-30T05:03:02;42.80;;;19.50;;
64459;SDS011;50828;53.756;21.140;2024-01-30T05:08:09;43.90;;;20.60;;
64459;SDS011;50828;53.756;21.140;2024-01-30T05:13:18;42.10;;;19.60;;
64459;SDS011;50828;53.756;21.140;2024-01-30T05:18:25;37.10;;;17.70;;
64459;SDS011;50828;53.756;21.140;2024-01-30T05:23:32;36.00;;;18.80;;
64459;SDS011;50828;53.756;21.140;2024-01-30T05:28:40;34.20;;;19.00;;
64459;SDS011;50828;53.756;21.140;2024-01-30T05:33:50;42.10;;;21.10;;
64459;SDS011;50828;53.756;21.140;2024-01-30T05:38:58;39.70;;;19.20;;
64459;SDS011;50828;53.756;21.140;2024-01-30T05:44:09;43.90;;;18.90;;
64459;SDS011;50828;53.756;21.140;2024-01-30T05:49:18;38.00;;;19.00;;
64459;SDS011;50828;53.756;21.140;2024-01-30T05:54:26;33.80;;;19.20;;
64459;SDS011;50828;53.756;21.140;2024-01-30T05:59:34;47.70;;;21.50;;
64459;SDS011;50828;53.756;21.140;2024-01-30T06:04:45;40.30;;;18.60;;
64459;SDS011;50828;53.756;21.140;2024-01-30T06:09:54;37.50;;;18.40;;
64459;SDS011;50828;53.756;21.140;2024-01-30T06:15:02;42.20;;;19.70;;
64459;SDS011;50828;53.756;21.140;2024-01-30T06:20:12;38.50;;;19.50;;
64459;SDS011;50828;53.756;21.140;2024-01-30T06:25:20;37.30;;;18.10;;
64459;SDS011;50828;53.756;21.140;2024-01-30T06:30:29;36.20;;;18.40;;
64459;SDS011;50828;53.756;21.140;2024-01-30T06:35:37;37.80;;;20.30;;
64459;SDS011;50828;53.756;21.140;2024-01-30T06:40:48;36.80;;;18.90;;
64459;SDS011;50828;53.756;21.140;2024-01-30T06:45:56;35.40;;;17.70;;
64459;SDS011;50828;53.756;21.140;2024-01-30T06:51:05;38.50;;;19.30;;
64459;SDS011;50828;53.756;21.140;2024-01-30T06:56:12;36.00;;;18.00;;
64459;SDS011;50828;53.756;21.140;2024-01-30T07:01:21;36.50;;;18.10;;
64459;SDS011;50828;53.756;21.140;2024-01-30T07:06:34;34.10;;;19.10;;
64459;SDS011;50828;53.756;21.140;2024-01-30T07:11:42;42.60;;;19.70;;
64459;SDS011;50828;53.756;21.140;2024-01-30T07:16:50;41.80;;;18.70;;
64459;SDS011;50828;53.756;21.140;2024-01-30T07:21:58;38.10;;;18.30;;
64459;SDS011;50828;53.756;21.140;2024-01-30T07:27:06;33.10;;;17.40;;
64459;SDS011;50828;53.756;21.140;2024-01-30T07:32:14;37.80;;;18.80;;
64459;SDS011;50828;53.756;21.140;2024-01-30T07:37:22;33.50;;;17.60;;
64459;SDS011;50828;53.756;21.140;2024-01-30T07:42:29;38.70;;;17.50;;
64459;SDS011;50828;53.756;21.140;2024-01-30T07:47:38;28.70;;;16.30;;
64459;SDS011;50828;53.756;21.140;2024-01-30T07:52:47;31.50;;;16.70;;
64459;SDS011;50828;53.756;21.140;2024-01-30T08:03:05;32.00;;;16.50;;
64459;SDS011;50828;53.756;21.140;2024-01-30T08:08:13;33.50;;;16.50;;
64459;SDS011;50828;53.756;21.140;2024-01-30T08:13:22;36.20;;;17.40;;
64459;SDS011;50828;53.756;21.140;2024-01-30T08:18:30;31.20;;;15.90;;
64459;SDS011;50828;53.756;21.140;2024-01-30T08:23:39;37.50;;;17.00;;
64459;SDS011;50828;53.756;21.140;2024-01-30T08:28:48;39.30;;;17.60;;
64459;SDS011;50828;53.756;21.140;2024-01-30T08:33:58;34.90;;;16.10;;
64459;SDS011;50828;53.756;21.140;2024-01-30T08:39:08;28.70;;;14.50;;
64459;SDS011;50828;53.756;21.140;2024-01-30T08:44:15;33.40;;;14.90;;
64459;SDS011;50828;53.756;21.140;2024-01-30T08:49:24;34.10;;;16.70;;
64459;SDS011;50828;53.756;21.140;2024-01-30T08:54:31;34.20;;;17.20;;
64459;SDS011;50828;53.756;21.140;2024-01-30T08:59:40;30.00;;;14.90;;
64459;SDS011;50828;53.756;21.140;2024-01-30T09:04:49;29.10;;;14.50;;
64459;SDS011;50828;53.756;21.140;2024-01-30T09:09:56;28.80;;;14.40;;
64459;SDS011;50828;53.756;21.140;2024-01-30T09:15:05;30.20;;;14.70;;
64459;SDS011;50828;53.756;21.140;2024-01-30T09:20:17;32.90;;;14.70;;
64459;SDS011;50828;53.756;21.140;2024-01-30T09:25:27;32.00;;;13.70;;
64459;SDS011;50828;53.756;21.140;2024-01-30T09:30:35;28.80;;;14.70;;
64459;SDS011;50828;53.756;21.140;2024-01-30T09:35:43;26.30;;;13.10;;
64459;SDS011;50828;53.756;21.140;2024-01-30T09:40:53;30.60;;;14.10;;
64459;SDS011;50828;53.756;21.140;2024-01-30T09:46:01;24.60;;;12.50;;
64459;SDS011;50828;53.756;21.140;2024-01-30T09:51:10;27.70;;;13.90;;
64459;SDS011;50828;53.756;21.140;2024-01-30T09:56:19;27.50;;;15.30;;
64459;SDS011;50828;53.756;21.140;2024-01-30T10:01:27;31.70;;;15.20;;
64459;SDS011;50828;53.756;21.140;2024-01-30T10:06:35;29.40;;;13.60;;
64459;SDS011;50828;53.756;21.140;2024-01-30T10:11:44;29.50;;;14.40;;
64459;SDS011;50828;53.756;21.140;2024-01-30T10:16:52;25.70;;;14.40;;
64459;SDS011;50828;53.756;21.140;2024-01-30T10:22:01;27.10;;;13.50;;
64459;SDS011;50828;53.756;21.140;2024-01-30T10:27:10;29.70;;;14.60;;
64459;SDS011;50828;53.756;21.140;2024-01-30T10:32:19;31.10;;;14.60;;
64459;SDS011;50828;53.756;21.140;2024-01-30T10:37:28;26.80;;;15.00;;
64459;SDS011;50828;53.756;21.140;2024-01-30T10:42:41;33.80;;;15.00;;
64459;SDS011;50828;53.756;21.140;2024-01-30T10:47:52;34.80;;;15.90;;
64459;SDS011;50828;53.756;21.140;2024-01-30T10:53:02;30.50;;;14.80;;
64459;SDS011;50828;53.756;21.140;2024-01-30T10:58:14;31.60;;;16.00;;
64459;SDS011;50828;53.756;21.140;2024-01-30T11:03:23;26.60;;;13.50;;
64459;SDS011;50828;53.756;21.140;2024-01-30T11:08:33;28.60;;;14.40;;
64459;SDS011;50828;53.756;21.140;2024-01-30T11:13:42;30.10;;;14.00;;
64459;SDS011;50828;53.756;21.140;2024-01-30T11:18:51;29.30;;;13.90;;
64459;SDS011;50828;53.756;21.140;2024-01-30T11:24:00;31.20;;;14.20;;
64459;SDS011;50828;53.756;21.140;2024-01-30T11:29:13;33.90;;;15.70;;
64459;SDS011;50828;53.756;21.140;2024-01-30T11:34:22;32.60;;;14.50;;
64459;SDS011;50828;53.756;21.140;2024-01-30T11:39:30;32.30;;;13.80;;
64459;SDS011;50828;53.756;21.140;2024-01-30T11:44:38;27.80;;;13.30;;
64459;SDS011;50828;53.756;21.140;2024-01-30T11:49:49;31.10;;;13.90;;
64459;SDS011;50828;53.756;21.140;2024-01-30T11:54:58;28.10;;;13.20;;
64459;SDS011;50828;53.756;21.140;2024-01-30T12:00:13;27.70;;;12.40;;
64459;SDS011;50828;53.756;21.140;2024-01-30T12:05:23;26.80;;;13.30;;
64459;SDS011;50828;53.756;21.140;2024-01-30T12:10:32;29.10;;;14.50;;
64459;SDS011;50828;53.756;21.140;2024-01-30T12:15:41;28.80;;;12.90;;
64459;SDS011;50828;53.756;21.140;2024-01-30T12:20:58;30.60;;;13.80;;
64459;SDS011;50828;53.756;21.140;2024-01-30T12:26:06;27.80;;;13.70;;
64459;SDS011;50828;53.756;21.140;2024-01-30T12:31:16;27.90;;;13.40;;
64459;SDS011;50828;53.756;21.140;2024-01-30T12:36:24;30.80;;;14.60;;
64459;SDS011;50828;53.756;21.140;2024-01-30T12:41:33;34.30;;;15.70;;
64459;SDS011;50828;53.756;21.140;2024-01-30T12:46:41;31.20;;;14.60;;
64459;SDS011;50828;53.756;21.140;2024-01-30T12:51:52;33.70;;;14.70;;
64459;SDS011;50828;53.756;21.140;2024-01-30T12:57:01;31.50;;;15.30;;
64459;SDS011;50828;53.756;21.140;2024-01-30T13:02:10;31.60;;;15.10;;
64459;SDS011;50828;53.756;21.140;2024-01-30T13:07:18;34.30;;;15.00;;
64459;SDS011;50828;53.756;21.140;2024-01-30T13:12:26;37.40;;;17.10;;
64459;SDS011;50828;53.756;21.140;2024-01-30T13:17:37;35.90;;;15.20;;
64459;SDS011;50828;53.756;21.140;2024-01-30T13:22:46;33.10;;;15.40;;
64459;SDS011;50828;53.756;21.140;2024-01-30T13:27:55;36.10;;;16.00;;
64459;SDS011;50828;53.756;21.140;2024-01-30T13:33:04;36.50;;;15.00;;
64459;SDS011;50828;53.756;21.140;2024-01-30T13:38:13;35.30;;;15.60;;
64459;SDS011;50828;53.756;21.140;2024-01-30T13:43:22;32.80;;;16.30;;
64459;SDS011;50828;53.756;21.140;2024-01-30T13:48:31;32.70;;;15.60;;
64459;SDS011;50828;53.756;21.140;2024-01-30T13:53:40;32.90;;;16.60;;
64459;SDS011;50828;53.756;21.140;2024-01-30T13:58:49;40.10;;;16.60;;
64459;SDS011;50828;53.756;21.140;2024-01-30T14:04:00;35.60;;;16.50;;
64459;SDS011;50828;53.756;21.140;2024-01-30T14:09:14;35.50;;;16.40;;
64459;SDS011;50828;53.756;21.140;2024-01-30T14:14:23;39.30;;;15.80;;
64459;SDS011;50828;53.756;21.140;2024-01-30T14:19:31;34.90;;;16.00;;
64459;SDS011;50828;53.756;21.140;2024-01-30T14:24:40;39.00;;;17.00;;
64459;SDS011;50828;53.756;21.140;2024-01-30T14:29:49;34.90;;;15.80;;
64459;SDS011;50828;53.756;21.140;2024-01-30T14:34:57;35.30;;;16.60;;
64459;SDS011;50828;53.756;21.140;2024-01-30T14:40:05;35.40;;;15.80;;
64459;SDS011;50828;53.756;21.140;2024-01-30T14:45:14;34.30;;;15.40;;
64459;SDS011;50828;53.756;21.140;2024-01-30T14:50:25;33.00;;;16.30;;
64459;SDS011;50828;53.756;21.140;2024-01-30T15:00:40;37.40;;;14.30;;
64459;SDS011;50828;53.756;21.140;2024-01-30T15:05:48;35.20;;;16.70;;
64459;SDS011;50828;53.756;21.140;2024-01-30T15:10:56;29.10;;;14.40;;
64459;SDS011;50828;53.756;21.140;2024-01-30T15:16:05;32.30;;;15.00;;
64459;SDS011;50828;53.756;21.140;2024-01-30T15:21:14;29.70;;;14.90;;
64459;SDS011;50828;53.756;21.140;2024-01-30T15:26:25;32.60;;;15.10;;
64459;SDS011;50828;53.756;21.140;2024-01-30T15:31:33;28.50;;;14.30;;
64459;SDS011;50828;53.756;21.140;2024-01-30T15:36:42;30.40;;;15.00;;
64459;SDS011;50828;53.756;21.140;2024-01-30T15:41:50;35.40;;;15.40;;
64459;SDS011;50828;53.756;21.140;2024-01-30T15:46:59;29.30;;;15.30;;
64459;SDS011;50828;53.756;21.140;2024-01-30T15:52:08;35.50;;;16.40;;
64459;SDS011;50828;53.756;21.140;2024-01-30T15:57:19;32.40;;;16.00;;
64459;SDS011;50828;53.756;21.140;2024-01-30T16:02:30;32.40;;;15.30;;
64459;SDS011;50828;53.756;21.140;2024-01-30T16:07:39;34.70;;;15.70;;
64459;SDS011;50828;53.756;21.140;2024-01-30T16:12:48;32.30;;;15.00;;
64459;SDS011;50828;53.756;21.140;2024-01-30T16:17:57;31.80;;;17.30;;
64459;SDS011;50828;53.756;21.140;2024-01-30T16:23:05;33.40;;;15.50;;
64459;SDS011;50828;53.756;21.140;2024-01-30T16:28:14;36.50;;;16.00;;
64459;SDS011;50828;53.756;21.140;2024-01-30T16:33:22;29.50;;;13.90;;
64459;SDS011;50828;53.756;21.140;2024-01-30T16:38:30;27.50;;;15.00;;
64459;SDS011;50828;53.756;21.140;2024-01-30T16:43:39;32.40;;;16.20;;
64459;SDS011;50828;53.756;21.140;2024-01-30T16:48:48;34.30;;;16.30;;
64459;SDS011;50828;53.756;21.140;2024-01-30T16:53:57;33.40;;;18.00;;
64459;SDS011;50828;53.756;21.140;2024-01-30T16:59:07;37.10;;;16.90;;
64459;SDS011;50828;53.756;21.140;2024-01-30T17:04:16;33.80;;;16.60;;
64459;SDS011;50828;53.756;21.140;2024-01-30T17:09:27;31.90;;;16.00;;
64459;SDS011;50828;53.756;21.140;2024-01-30T17:14:37;33.60;;;16.40;;
64459;SDS011;50828;53.756;21.140;2024-01-30T17:19:45;36.90;;;16.70;;
64459;SDS011;50828;53.756;21.140;2024-01-30T17:24:53;29.40;;;14.30;;
64459;SDS011;50828;53.756;21.140;2024-01-30T17:30:03;40.70;;;16.90;;
64459;SDS011;50828;53.756;21.140;2024-01-30T17:35:11;29.60;;;14.80;;
64459;SDS011;50828;53.756;21.140;2024-01-30T17:40:19;31.70;;;15.70;;
64459;SDS011;50828;53.756;21.140;2024-01-30T17:45:27;29.70;;;15.90;;
64459;SDS011;50828;53.756;21.140;2024-01-30T17:50:36;30.10;;;15.10;;
64459;SDS011;50828;53.756;21.140;2024-01-30T17:55:46;34.00;;;15.80;;
64459;SDS011;50828;53.756;21.140;2024-01-30T18:00:55;33.10;;;16.60;;
64459;SDS011;50828;53.756;21.140;2024-01-30T18:06:05;35.30;;;15.30;;
64459;SDS011;50828;53.756;21.140;2024-01-30T18:11:14;28.80;;;15.60;;
64459;SDS011;50828;53.756;21.140;2024-01-30T18:16:23;34.20;;;16.20;;
64459;SDS011;50828;53.756;21.140;2024-01-30T18:21:32;29.20;;;15.30;;
64459;SDS011;50828;53.756;21.140;2024-01-30T18:26:41;34.80;;;15.40;;
64459;SDS011;50828;53.756;21.140;2024-01-30T18:31:49;32.40;;;15.80;;
64459;SDS011;50828;53.756;21.140;2024-01-30T18:36:57;31.20;;;15.20;;
64459;SDS011;50828;53.756;21.140;2024-01-30T18:42:06;32.60;;;15.30;;
64459;SDS011;50828;53.756;21.140;2024-01-30T18:47:15;37.70;;;16.90;;
64459;SDS011;50828;53.756;21.140;2024-01-30T18:52:24;33.10;;;15.60;;
64459;SDS011;50828;53.756;21.140;2024-01-30T18:57:34;32.20;;;15.90;;
64459;SDS011;50828;53.756;21.140;2024-01-30T19:02:42;32.80;;;15.70;;
64459;SDS011;50828;53.756;21.140;2024-01-30T19:07:51;32.70;;;15.90;;
64459;SDS011;50828;53.756;21.140;2024-01-30T19:13:00;31.70;;;16.50;;
64459;SDS011;50828;53.756;21.140;2024-01-30T19:18:10;33.10;;;17.00;;
64459;SDS011;50828;53.756;21.140;2024-01-30T19:23:19;34.30;;;16.20;;
64459;SDS011;50828;53.756;21.140;2024-01-30T19:28:27;34.10;;;15.50;;
64459;SDS011;50828;53.756;21.140;2024-01-30T19:33:36;35.20;;;17.40;;
64459;SDS011;50828;53.756;21.140;2024-01-30T19:38:45;31.00;;;14.30;;
64459;SDS011;50828;53.756;21.140;2024-01-30T19:43:54;35.50;;;16.10;;
64459;SDS011;50828;53.756;21.140;2024-01-30T19:49:01;32.60;;;16.10;;
64459;SDS011;50828;53.756;21.140;2024-01-30T19:54:10;35.10;;;17.20;;
64459;SDS011;50828;53.756;21.140;2024-01-30T19:59:18;30.90;;;15.30;;
64459;SDS011;50828;53.756;21.140;2024-01-30T20:04:26;33.50;;;16.40;;
64459;SDS011;50828;53.756;21.140;2024-01-30T20:09:35;31.60;;;15.30;;
64459;SDS011;50828;53.756;21.140;2024-01-30T20:14:43;33.10;;;16.20;;
64459;SDS011;50828;53.756;21.140;2024-01-30T20:19:51;32.70;;;16.10;;
64459;SDS011;50828;53.756;21.140;2024-01-30T20:24:59;35.30;;;16.70;;
64459;SDS011;50828;53.756;21.140;2024-01-30T20:30:21;27.50;;;14.80;;
64459;SDS011;50828;53.756;21.140;2024-01-30T20:35:31;31.30;;;15.50;;
64459;SDS011;50828;53.756;21.140;2024-01-30T20:40:38;33.70;;;15.10;;
64459;SDS011;50828;53.756;21.140;2024-01-30T20:45:46;30.30;;;15.00;;
64459;SDS011;50828;53.756;21.140;2024-01-30T20:50:54;31.60;;;16.00;;
64459;SDS011;50828;53.756;21.140;2024-01-30T20:56:03;32.90;;;15.40;;
64459;SDS011;50828;53.756;21.140;2024-01-30T21:01:12;33.20;;;15.00;;
64459;SDS011;50828;53.756;21.140;2024-01-30T21:06:20;28.00;;;13.70;;
64459;SDS011;50828;53.756;21.140;2024-01-30T21:11:29;27.80;;;14.50;;
64459;SDS011;50828;53.756;21.140;2024-01-30T21:16:37;30.20;;;14.60;;
64459;SDS011;50828;53.756;21.140;2024-01-30T21:21:46;31.30;;;15.10;;
64459;SDS011;50828;53.756;21.140;2024-01-30T21:26:54;28.40;;;14.80;;
64459;SDS011;50828;53.756;21.140;2024-01-30T21:32:03;34.40;;;15.80;;
64459;SDS011;50828;53.756;21.140;2024-01-30T21:37:11;29.70;;;14.80;;
64459;SDS011;50828;53.756;21.140;2024-01-30T21:42:19;30.40;;;14.00;;
64459;SDS011;50828;53.756;21.140;2024-01-30T21:47:28;23.90;;;13.10;;
64459;SDS011;50828;53.756;21.140;2024-01-30T21:52:37;27.40;;;13.90;;
64459;SDS011;50828;53.756;21.140;2024-01-30T21:57:45;27.40;;;14.30;;
64459;SDS011;50828;53.756;21.140;2024-01-30T22:02:53;25.60;;;13.80;;
64459;SDS011;50828;53.756;21.140;2024-01-30T22:08:01;31.50;;;13.90;;
64459;SDS011;50828;53.756;21.140;2024-01-30T22:13:09;24.90;;;12.70;;
64459;SDS011;50828;53.756;21.140;2024-01-30T22:18:17;27.90;;;12.60;;
64459;SDS011;50828;53.756;21.140;2024-01-30T22:23:25;25.90;;;13.20;;
64459;SDS011;50828;53.756;21.140;2024-01-30T22:28:33;29.90;;;14.20;;
64459;SDS011;50828;53.756;21.140;2024-01-30T22:33:42;24.50;;;12.60;;
64459;SDS011;50828;53.756;21.140;2024-01-30T22:38:50;28.10;;;13.60;;
64459;SDS011;50828;53.756;21.140;2024-01-30T22:43:59;28.00;;;14.30;;
64459;SDS011;50828;53.756;21.140;2024-01-30T22:49:07;28.90;;;14.30;;
64459;SDS011;50828;53.756;21.140;2024-01-30T22:54:17;29.50;;;14.10;;
64459;SDS011;50828;53.756;21.140;2024-01-30T22:59:26;26.20;;;12.70;;
64459;SDS011;50828;53.756;21.140;2024-01-30T23:04:35;27.40;;;13.90;;
64459;SDS011;50828;53.756;21.140;2024-01-30T23:09:43;27.40;;;14.50;;
64459;SDS011;50828;53.756;21.140;2024-01-30T23:14:53;33.10;;;13.80;;
64459;SDS011;50828;53.756;21.140;2024-01-30T23:20:02;32.60;;;14.80;;
64459;SDS011;50828;53.756;21.140;2024-01-30T23:25:12;26.50;;;14.00;;
64459;SDS011;50828;53.756;21.140;2024-01-30T23:30:21;28.60;;;14.40;;
64459;SDS011;50828;53.756;21.140;2024-01-30T23:35:30;29.60;;;14.60;;
64459;SDS011;50828;53.756;21.140;2024-01-30T23:40:39;25.20;;;13.80;;
64459;SDS011;50828;53.756;21.140;2024-01-30T23:45:48;30.00;;;14.60;;
64459;SDS011;50828;53.756;21.140;2024-01-30T23:50:57;28.70;;;13.70;;
64459;SDS011;50828;53.756;21.140;2024-01-30T23:56:06;27.60;;;13.60;;
